Time;durP1;ratioP1;P1;durP2;ratioP2;P2;SDS_P1;SDS_P2;PMS_P1;PMS_P2;Temp;Humidity;BMP_temperature;BMP_pressure;BME280_temperature;BME280_humidity;BME280_pressure;Samples;Min_cycle;Max_cycle;Signal;HPM_P1;HPM_P2
2022/03/13 00:01:22;;;;;;;19.00;10.53;;;4.70;82.90;;;;;;5039988;28;20217;-79
2022/03/13 00:03:48;;;;;;;16.67;9.27;;;4.70;83.20;;;;;;5036786;28;20679;-79
2022/03/13 00:06:14;;;;;;;18.80;9.57;;;4.70;82.50;;;;;;5036522;28;20216;-79
2022/03/13 00:08:40;;;;;;;17.77;9.27;;;4.70;82.30;;;;;;5035899;28;20194;-78
2022/03/13 00:11:08;;;;;;;17.40;9.93;;;4.70;81.90;;;;;;5037162;28;20269;-78
2022/03/13 00:13:36;;;;;;;15.73;9.47;;;4.70;81.90;;;;;;5035155;28;20300;-79
2022/03/13 00:16:08;;;;;;;15.37;8.83;;;4.60;81.90;;;;;;5037976;28;20680;-78
2022/03/13 00:18:36;;;;;;;20.13;10.53;;;4.60;82.30;;;;;;5034480;28;20220;-79
2022/03/13 00:21:04;;;;;;;20.80;9.93;;;4.60;82.40;;;;;;5041601;28;20222;-79
2022/03/13 00:23:34;;;;;;;18.20;9.27;;;4.50;82.70;;;;;;5055458;28;20237;-79
2022/03/13 00:26:00;;;;;;;18.03;10.47;;;4.50;82.80;;;;;;5056217;28;20264;-78
2022/03/13 00:28:26;;;;;;;20.63;9.83;;;4.50;83.10;;;;;;5056003;28;20209;-79
2022/03/13 00:30:51;;;;;;;19.40;9.87;;;4.40;83.00;;;;;;5049209;28;20214;-78
2022/03/13 00:33:17;;;;;;;17.77;10.00;;;4.40;83.10;;;;;;5057736;28;20232;-79
2022/03/13 00:35:43;;;;;;;24.53;10.33;;;4.30;84.00;;;;;;5055536;28;20214;-76
2022/03/13 00:38:09;;;;;;;16.90;10.17;;;4.20;84.50;;;;;;5052384;28;20198;-76
2022/03/13 00:40:35;;;;;;;17.97;9.87;;;4.20;84.50;;;;;;5053509;28;20203;-77
2022/03/13 00:43:00;;;;;;;19.57;9.87;;;4.20;85.00;;;;;;5056894;28;20234;-77
2022/03/13 00:45:27;;;;;;;22.20;11.17;;;4.10;85.30;;;;;;5055060;28;20249;-78
2022/03/13 00:47:53;;;;;;;16.43;9.43;;;4.10;85.60;;;;;;5056703;28;20211;-77
2022/03/13 00:50:18;;;;;;;17.63;10.47;;;4.00;85.80;;;;;;5055757;28;20184;-77
2022/03/13 00:52:44;;;;;;;17.90;9.97;;;4.00;86.10;;;;;;5054996;28;20211;-78
2022/03/13 00:55:10;;;;;;;17.90;10.20;;;4.00;86.20;;;;;;5054241;28;20219;-77
2022/03/13 00:57:36;;;;;;;18.63;10.30;;;3.90;86.20;;;;;;5052031;28;20217;-78
2022/03/13 01:00:02;;;;;;;17.67;9.73;;;3.90;86.50;;;;;;5046278;28;20665;-79
2022/03/13 01:02:27;;;;;;;17.57;10.60;;;3.90;86.60;;;;;;5033407;28;20183;-78
2022/03/13 01:04:53;;;;;;;20.77;10.80;;;3.90;86.90;;;;;;5032507;28;20215;-78
2022/03/13 01:07:19;;;;;;;21.83;9.83;;;3.80;86.80;;;;;;5033134;28;20264;-77
2022/03/13 01:09:44;;;;;;;17.33;9.57;;;3.80;87.00;;;;;;5032274;28;20235;-77
2022/03/13 01:12:11;;;;;;;15.87;8.97;;;3.70;87.00;;;;;;5033237;28;20207;-78
2022/03/13 01:14:37;;;;;;;18.70;9.77;;;3.80;87.20;;;;;;5032767;28;20705;-77
2022/03/13 01:17:05;;;;;;;19.00;10.20;;;3.70;87.40;;;;;;5033861;28;20212;-78
2022/03/13 01:19:31;;;;;;;16.53;9.00;;;3.80;87.20;;;;;;5031415;28;20229;-77
2022/03/13 01:21:57;;;;;;;16.30;8.83;;;3.70;87.10;;;;;;5032836;28;20301;-78
2022/03/13 01:24:42;;;;;;;19.50;9.43;;;3.60;87.10;;;;;;5032668;28;20220;-77
2022/03/13 01:27:08;;;;;;;19.00;9.20;;;3.60;87.30;;;;;;5032825;28;20704;-77
2022/03/13 01:29:34;;;;;;;19.67;10.10;;;3.60;87.60;;;;;;5030915;28;20190;-78
2022/03/13 01:32:00;;;;;;;15.97;9.07;;;3.50;88.00;;;;;;5033564;28;20176;-77
2022/03/13 01:34:35;;;;;;;18.67;8.83;;;3.50;87.90;;;;;;5032733;28;20290;-78
2022/03/13 01:37:01;;;;;;;17.67;9.63;;;3.50;88.10;;;;;;5031742;28;20211;-77
2022/03/13 01:39:27;;;;;;;16.03;8.50;;;3.40;88.30;;;;;;5030781;28;20234;-78
2022/03/13 01:41:53;;;;;;;15.00;9.47;;;3.40;88.30;;;;;;5033153;28;20231;-78
2022/03/13 01:44:19;;;;;;;19.17;10.00;;;3.40;88.50;;;;;;5041432;28;20210;-78
2022/03/13 01:46:44;;;;;;;22.73;10.33;;;3.40;88.60;;;;;;5052683;28;20642;-78
2022/03/13 01:49:10;;;;;;;19.30;10.20;;;3.40;88.80;;;;;;5052374;28;20202;-78
2022/03/13 01:51:36;;;;;;;19.40;9.43;;;3.40;88.40;;;;;;5052261;28;20218;-79
2022/03/13 01:54:04;;;;;;;16.47;8.93;;;3.40;88.70;;;;;;5054731;28;20207;-78
2022/03/13 01:56:33;;;;;;;16.67;8.93;;;3.30;88.70;;;;;;5050822;28;20200;-76
2022/03/13 01:58:59;;;;;;;17.93;10.50;;;3.30;88.60;;;;;;5052136;28;20198;-76
2022/03/13 02:01:27;;;;;;;21.40;9.90;;;3.30;88.70;;;;;;5033881;28;20355;-76
2022/03/13 02:03:52;;;;;;;21.13;9.07;;;3.20;89.00;;;;;;5032922;28;20225;-77
2022/03/13 02:06:21;;;;;;;18.67;9.60;;;3.10;89.10;;;;;;5033897;28;20583;-78
2022/03/13 02:08:48;;;;;;;20.63;10.17;;;3.10;89.00;;;;;;5032999;28;20219;-78
2022/03/13 02:11:21;;;;;;;19.93;9.33;;;3.10;89.10;;;;;;5031500;28;20180;-78
2022/03/13 02:13:49;;;;;;;19.47;10.17;;;3.00;89.20;;;;;;5051451;28;20221;-77
2022/03/13 02:16:16;;;;;;;19.83;9.60;;;3.10;89.20;;;;;;5045429;28;20294;-77
2022/03/13 02:18:46;;;;;;;19.63;9.33;;;3.10;89.10;;;;;;5032080;28;20245;-77
2022/03/13 02:21:11;;;;;;;14.77;9.23;;;3.10;89.20;;;;;;5033065;28;20226;-78
2022/03/13 02:23:37;;;;;;;22.57;10.70;;;3.00;89.30;;;;;;5031839;28;20301;-77
2022/03/13 02:26:05;;;;;;;18.10;9.90;;;3.00;89.50;;;;;;5032974;28;20180;-77
2022/03/13 02:28:33;;;;;;;20.83;10.17;;;3.00;89.60;;;;;;5032211;28;20775;-77
2022/03/13 02:31:05;;;;;;;17.97;9.50;;;3.00;89.80;;;;;;5036739;28;20707;-78
2022/03/13 02:33:32;;;;;;;19.07;10.33;;;3.00;89.70;;;;;;5038301;28;20235;-76
2022/03/13 02:35:59;;;;;;;19.70;9.67;;;3.00;89.70;;;;;;5057024;28;20215;-78
2022/03/13 02:38:27;;;;;;;19.97;10.00;;;3.00;90.00;;;;;;5054998;28;20198;-76
2022/03/13 02:40:53;;;;;;;17.20;10.03;;;2.90;90.00;;;;;;5054990;28;20742;-77
2022/03/13 02:43:19;;;;;;;20.10;9.83;;;2.90;90.00;;;;;;5054357;28;20768;-78
2022/03/13 02:45:45;;;;;;;16.87;9.93;;;2.90;90.00;;;;;;5054150;28;20214;-76
2022/03/13 02:48:12;;;;;;;17.13;9.70;;;2.80;90.10;;;;;;5055106;28;20733;-77
2022/03/13 02:50:38;;;;;;;21.03;10.03;;;2.80;90.20;;;;;;5054229;28;20188;-77
2022/03/13 02:53:05;;;;;;;19.67;9.87;;;2.70;90.30;;;;;;5054957;28;20185;-76
2022/03/13 02:55:31;;;;;;;18.60;9.50;;;2.60;90.30;;;;;;5055397;28;20280;-76
2022/03/13 02:57:57;;;;;;;22.37;10.53;;;2.60;90.30;;;;;;5053597;28;20236;-75
2022/03/13 03:00:46;;;;;;;18.90;10.13;;;2.60;90.40;;;;;;5045874;28;20213;-74
2022/03/13 03:03:13;;;;;;;18.23;9.50;;;2.50;90.40;;;;;;5035434;28;20210;-76
2022/03/13 03:05:38;;;;;;;16.80;9.53;;;2.50;90.60;;;;;;5034112;28;20660;-77
2022/03/13 03:08:05;;;;;;;21.10;10.40;;;2.50;90.70;;;;;;5033858;28;20208;-77
2022/03/13 03:10:32;;;;;;;21.13;9.80;;;2.50;90.70;;;;;;5042861;28;20214;-76
2022/03/13 03:12:57;;;;;;;18.47;9.40;;;2.50;90.70;;;;;;5054900;28;20214;-76
2022/03/13 03:15:23;;;;;;;20.87;10.07;;;2.50;90.60;;;;;;5055102;28;20242;-76
2022/03/13 03:17:49;;;;;;;21.03;9.87;;;2.40;90.70;;;;;;5055471;28;20208;-78
2022/03/13 03:20:15;;;;;;;21.60;9.23;;;2.50;90.70;;;;;;5054554;28;20190;-74
2022/03/13 03:22:40;;;;;;;18.60;10.10;;;2.40;90.70;;;;;;5054629;28;20220;-77
2022/03/13 03:25:06;;;;;;;16.40;9.43;;;2.40;90.70;;;;;;5056210;28;20229;-78
2022/03/13 03:27:32;;;;;;;16.17;9.80;;;2.40;90.70;;;;;;5056021;28;20210;-77
2022/03/13 03:29:59;;;;;;;19.00;9.57;;;2.40;90.70;;;;;;5048816;28;20795;-78
2022/03/13 03:32:25;;;;;;;18.63;9.97;;;2.40;90.50;;;;;;5034679;28;20204;-77
2022/03/13 03:34:50;;;;;;;20.77;9.93;;;2.40;90.50;;;;;;5035430;28;20685;-77
2022/03/13 03:37:16;;;;;;;19.43;9.93;;;2.50;90.60;;;;;;5035171;28;20704;-77
2022/03/13 03:39:41;;;;;;;19.33;9.23;;;2.40;90.40;;;;;;5029705;28;20212;-78
2022/03/13 03:42:07;;;;;;;16.43;9.20;;;2.40;90.50;;;;;;5033882;28;20267;-74
2022/03/13 03:44:33;;;;;;;17.37;9.77;;;2.40;90.40;;;;;;5051360;28;20242;-74
2022/03/13 03:46:59;;;;;;;18.03;9.67;;;2.40;90.30;;;;;;5048013;28;20184;-74
2022/03/13 03:49:24;;;;;;;18.07;9.77;;;2.40;90.40;;;;;;5053322;28;20236;-74
2022/03/13 03:51:50;;;;;;;19.57;9.73;;;2.30;90.50;;;;;;5053842;28;20319;-73
2022/03/13 03:54:16;;;;;;;22.63;10.27;;;2.30;90.60;;;;;;5045182;28;20216;-74
2022/03/13 03:56:42;;;;;;;16.30;9.40;;;2.30;90.60;;;;;;5033962;28;23359;-78
2022/03/13 03:59:07;;;;;;;17.70;9.57;;;2.30;90.70;;;;;;5033774;28;20213;-74
2022/03/13 04:01:41;;;;;;;19.77;10.13;;;2.30;90.70;;;;;;5033741;28;20212;-74
2022/03/13 04:04:08;;;;;;;19.30;9.50;;;2.30;90.80;;;;;;5033814;28;20212;-76
2022/03/13 04:06:37;;;;;;;19.17;10.00;;;2.20;90.90;;;;;;5052152;28;20210;-74
2022/03/13 04:09:03;;;;;;;16.07;9.53;;;2.20;91.00;;;;;;5051897;28;20222;-73
2022/03/13 04:11:29;;;;;;;22.90;10.50;;;2.10;91.00;;;;;;5044697;28;20183;-73
2022/03/13 04:13:55;;;;;;;22.33;10.50;;;2.20;91.20;;;;;;5054026;28;20272;-74
2022/03/13 04:16:20;;;;;;;20.23;10.27;;;2.10;91.40;;;;;;5053455;28;20226;-75
2022/03/13 04:18:47;;;;;;;22.83;9.90;;;2.10;91.50;;;;;;5052817;28;20227;-74
2022/03/13 04:21:13;;;;;;;22.47;10.67;;;2.00;91.60;;;;;;5053646;28;20209;-74
2022/03/13 04:23:38;;;;;;;22.00;10.57;;;2.00;91.80;;;;;;5053082;28;20306;-74
2022/03/13 04:26:05;;;;;;;21.07;10.57;;;2.00;91.90;;;;;;5054693;28;20272;-74
2022/03/13 04:28:31;;;;;;;19.77;9.97;;;2.00;92.00;;;;;;5052170;28;20205;-74
2022/03/13 04:30:59;;;;;;;19.20;10.37;;;1.90;92.00;;;;;;5053140;28;20203;-74
2022/03/13 04:33:26;;;;;;;20.93;9.83;;;1.90;92.10;;;;;;5053109;28;20207;-73
2022/03/13 04:35:52;;;;;;;24.27;10.83;;;1.90;92.20;;;;;;5053082;28;20202;-74
2022/03/13 04:38:18;;;;;;;22.20;10.23;;;1.90;92.20;;;;;;5051360;28;20206;-74
2022/03/13 04:40:44;;;;;;;19.97;10.87;;;1.90;92.30;;;;;;5050068;28;20209;-73
2022/03/13 04:43:10;;;;;;;19.73;9.87;;;1.90;92.30;;;;;;5043178;28;20230;-74
2022/03/13 04:45:35;;;;;;;21.63;9.67;;;1.90;92.10;;;;;;5050435;28;20200;-74
2022/03/13 04:48:01;;;;;;;19.70;9.87;;;1.80;92.30;;;;;;5040244;28;20512;-74
2022/03/13 04:50:26;;;;;;;21.07;10.40;;;1.80;92.30;;;;;;5034765;28;20202;-75
2022/03/13 04:52:52;;;;;;;22.80;10.23;;;1.80;92.40;;;;;;5035894;28;20173;-74
2022/03/13 04:55:18;;;;;;;19.87;10.50;;;1.90;92.30;;;;;;5033859;28;20213;-74
2022/03/13 04:57:43;;;;;;;23.20;10.33;;;1.80;92.30;;;;;;5031574;28;20209;-75
2022/03/13 05:00:09;;;;;;;18.33;9.97;;;1.80;92.40;;;;;;5032530;28;20213;-75
2022/03/13 05:02:36;;;;;;;20.57;9.57;;;1.80;92.30;;;;;;5031814;28;20237;-74
2022/03/13 05:05:01;;;;;;;22.87;10.07;;;1.80;92.40;;;;;;5031941;28;20729;-74
2022/03/13 05:07:28;;;;;;;17.30;10.30;;;1.80;92.40;;;;;;5032760;28;20242;-74
2022/03/13 05:09:53;;;;;;;20.93;10.40;;;1.80;92.40;;;;;;5029977;28;20245;-74
2022/03/13 05:12:21;;;;;;;21.83;10.13;;;1.80;92.40;;;;;;5044775;28;20216;-75
2022/03/13 05:14:47;;;;;;;23.17;10.50;;;1.80;92.50;;;;;;5036894;28;20318;-74
2022/03/13 05:17:13;;;;;;;19.80;10.57;;;1.80;92.50;;;;;;5052683;28;20282;-73
2022/03/13 05:19:39;;;;;;;22.00;10.00;;;1.80;92.50;;;;;;5049980;28;20206;-73
2022/03/13 05:22:04;;;;;;;19.27;9.90;;;1.80;92.70;;;;;;5051112;28;20209;-74
2022/03/13 05:24:30;;;;;;;18.77;10.17;;;1.80;92.70;;;;;;5050517;28;20217;-73
2022/03/13 05:26:55;;;;;;;19.13;8.93;;;1.80;92.60;;;;;;5050958;28;20237;-75
2022/03/13 05:29:21;;;;;;;19.03;10.30;;;1.80;92.60;;;;;;5051847;28;20655;-75
2022/03/13 05:31:46;;;;;;;20.10;9.70;;;1.80;92.50;;;;;;5050834;28;20213;-75
2022/03/13 05:34:12;;;;;;;18.00;9.00;;;1.90;92.40;;;;;;5051204;28;20303;-76
2022/03/13 05:36:38;;;;;;;22.10;10.63;;;1.90;92.30;;;;;;5050929;28;20733;-74
2022/03/13 05:39:03;;;;;;;19.30;9.27;;;1.90;92.20;;;;;;5049992;28;20743;-74
2022/03/13 05:41:29;;;;;;;19.43;9.50;;;1.90;92.20;;;;;;5036185;28;20191;-75
2022/03/13 05:43:55;;;;;;;21.13;9.83;;;2.00;92.00;;;;;;5051026;28;20208;-74
2022/03/13 05:46:20;;;;;;;19.50;9.43;;;2.00;92.00;;;;;;5051730;28;20301;-75
2022/03/13 05:48:46;;;;;;;20.50;10.00;;;2.00;92.00;;;;;;5051119;28;20718;-75
2022/03/13 05:51:11;;;;;;;16.43;9.00;;;2.10;91.90;;;;;;5052295;28;20224;-75
2022/03/13 05:53:37;;;;;;;20.63;10.17;;;2.10;92.00;;;;;;5051611;28;20203;-76
2022/03/13 05:56:03;;;;;;;16.77;8.90;;;2.20;91.90;;;;;;5051056;28;20183;-75
2022/03/13 05:58:28;;;;;;;16.73;9.00;;;2.10;91.80;;;;;;5032668;28;20700;-74
2022/03/13 06:01:08;;;;;;;16.17;8.87;;;2.20;92.10;;;;;;5033263;28;20223;-74
2022/03/13 06:03:34;;;;;;;18.53;9.83;;;2.30;92.00;;;;;;5033338;28;20259;-74
2022/03/13 06:06:03;;;;;;;24.10;10.37;;;2.30;92.20;;;;;;5052476;28;20902;-73
2022/03/13 06:08:29;;;;;;;19.67;10.17;;;2.30;91.60;;;;;;5034877;28;20185;-74
2022/03/13 06:10:54;;;;;;;19.27;9.87;;;2.40;91.60;;;;;;5033434;28;20265;-75
2022/03/13 06:13:22;;;;;;;19.10;9.03;;;2.50;91.40;;;;;;5048488;28;20246;-76
2022/03/13 06:15:49;;;;;;;18.33;8.77;;;3.00;91.30;;;;;;5026734;28;20303;-77
2022/03/13 06:18:15;;;;;;;20.57;9.47;;;6.00;88.10;;;;;;5034281;28;20571;-78
2022/03/13 06:20:40;;;;;;;18.90;9.80;;;7.90;82.30;;;;;;5053423;28;20195;-78
2022/03/13 06:23:08;;;;;;;18.30;10.00;;;9.30;77.30;;;;;;5052043;28;20178;-79
2022/03/13 06:25:34;;;;;;;18.23;10.70;;;9.70;75.20;;;;;;5057071;28;20222;-79
2022/03/13 06:27:59;;;;;;;14.67;9.53;;;10.80;71.90;;;;;;5044509;28;20673;-79
2022/03/13 06:30:25;;;;;;;16.83;9.73;;;10.90;70.00;;;;;;5042738;28;20215;-75
2022/03/13 06:32:53;;;;;;;20.47;9.83;;;11.10;69.30;;;;;;5066076;22;20232;-75
2022/03/13 06:35:23;;;;;;;19.43;10.73;;;11.90;70.80;;;;;;5030444;28;20556;-75
2022/03/13 06:37:49;;;;;;;14.67;9.73;;;13.00;66.50;;;;;;5021979;28;20235;-75
2022/03/13 06:40:19;;;;;;;17.27;9.83;;;13.20;64.70;;;;;;5029118;28;20296;-77
2022/03/13 06:42:45;;;;;;;15.90;9.30;;;13.60;63.20;;;;;;5031445;28;20231;-76
2022/03/13 06:45:11;;;;;;;16.10;10.30;;;13.90;61.30;;;;;;5031565;28;20238;-76
2022/03/13 06:47:41;;;;;;;16.87;9.77;;;13.60;60.90;;;;;;5023181;28;20184;-76
2022/03/13 06:50:08;;;;;;;15.07;10.10;;;13.60;61.30;;;;;;5031521;28;20180;-73
2022/03/13 06:52:34;;;;;;;17.33;10.47;;;12.20;63.70;;;;;;5023891;28;20224;-72
2022/03/13 06:55:00;;;;;;;18.27;10.20;;;12.10;64.60;;;;;;5024646;28;20217;-74
2022/03/13 06:57:26;;;;;;;18.20;10.33;;;12.30;64.00;;;;;;5027064;28;20219;-74
2022/03/13 06:59:51;;;;;;;22.40;10.03;;;12.00;63.10;;;;;;5024090;28;20212;-75
2022/03/13 07:02:17;;;;;;;21.33;10.17;;;12.20;63.00;;;;;;5023205;28;20211;-74
2022/03/13 07:04:42;;;;;;;19.93;10.80;;;11.60;61.90;;;;;;5030180;28;20216;-76
2022/03/13 07:07:08;;;;;;;16.10;9.93;;;11.20;63.60;;;;;;5021956;28;20276;-75
2022/03/13 07:09:34;;;;;;;18.40;9.97;;;11.70;63.40;;;;;;5022475;28;20212;-80
2022/03/13 07:11:59;;;;;;;16.40;10.10;;;12.50;61.50;;;;;;5021758;28;20227;-79
2022/03/13 07:14:25;;;;;;;17.67;10.90;;;12.20;60.60;;;;;;5015451;28;20203;-79
2022/03/13 07:16:51;;;;;;;17.53;10.17;;;11.90;61.00;;;;;;5020483;28;20205;-78
2022/03/13 07:19:16;;;;;;;13.20;9.43;;;11.90;60.60;;;;;;5029451;28;20221;-78
2022/03/13 07:21:42;;;;;;;16.23;10.20;;;12.60;61.20;;;;;;5034220;28;20716;-77
2022/03/13 07:24:08;;;;;;;15.57;9.95;;;13.20;60.10;;;;;;5034524;28;20295;-76
2022/03/13 07:26:33;;;;;;;18.80;10.90;;;13.60;58.20;;;;;;5022810;28;20650;-77
2022/03/13 07:29:01;;;;;;;16.38;10.65;;;14.00;57.70;;;;;;5024923;28;20234;-77
2022/03/13 07:31:30;;;;;;;17.70;10.60;;;13.40;58.10;;;;;;5033553;28;20213;-76
2022/03/13 07:33:56;;;;;;;15.03;9.90;;;13.80;58.00;;;;;;5041016;28;20200;-76
2022/03/13 07:36:22;;;;;;;18.07;9.77;;;12.60;58.40;;;;;;5034063;28;20641;-76
2022/03/13 07:38:48;;;;;;;15.73;9.90;;;11.60;58.70;;;;;;5033004;28;20239;-77
2022/03/13 07:41:13;;;;;;;17.37;10.57;;;12.30;59.80;;;;;;5033978;28;20278;-77
2022/03/13 07:43:39;;;;;;;14.57;10.57;;;12.40;58.80;;;;;;5026051;28;20216;-77
2022/03/13 07:46:05;;;;;;;17.03;10.30;;;12.80;58.70;;;;;;5017544;28;20292;-76
2022/03/13 07:48:34;;;;;;;18.13;9.43;;;12.50;58.60;;;;;;5014068;28;20318;-76
2022/03/13 07:51:00;;;;;;;17.17;10.00;;;12.40;58.30;;;;;;5032423;28;20652;-78
2022/03/13 07:53:27;;;;;;;15.70;9.03;;;12.70;58.70;;;;;;5025326;28;20527;-76
2022/03/13 07:55:54;;;;;;;15.90;9.90;;;12.80;58.10;;;;;;5032527;28;20246;-75
2022/03/13 07:58:20;;;;;;;13.23;9.00;;;12.60;58.10;;;;;;5031208;28;20220;-74
2022/03/13 08:00:45;;;;;;;18.10;9.03;;;12.70;57.40;;;;;;5013870;28;20224;-76
2022/03/13 08:03:11;;;;;;;15.47;9.70;;;12.50;57.50;;;;;;5018025;28;20668;-75
2022/03/13 08:05:37;;;;;;;15.57;9.23;;;12.60;57.10;;;;;;5020190;28;20173;-75
2022/03/13 08:08:03;;;;;;;17.23;9.00;;;13.20;57.10;;;;;;5016669;28;20208;-75
2022/03/13 08:10:29;;;;;;;15.00;9.17;;;12.50;56.50;;;;;;5020805;28;20230;-76
2022/03/13 08:12:54;;;;;;;13.57;9.23;;;12.40;57.10;;;;;;5033079;28;20219;-74
2022/03/13 08:15:20;;;;;;;17.03;9.27;;;11.90;58.10;;;;;;5031460;28;20204;-75
2022/03/13 08:17:46;;;;;;;16.20;8.97;;;11.40;58.10;;;;;;5022518;28;20669;-74
2022/03/13 08:20:12;;;;;;;14.23;8.43;;;11.60;58.80;;;;;;5023893;28;20227;-77
2022/03/13 08:22:38;;;;;;;16.07;9.10;;;12.40;57.60;;;;;;5013799;28;20292;-73
2022/03/13 08:25:05;;;;;;;13.67;9.03;;;11.60;57.70;;;;;;5032694;28;20299;-73
2022/03/13 08:27:31;;;;;;;21.10;9.03;;;11.30;58.20;;;;;;5027253;28;20217;-75
2022/03/13 08:29:58;;;;;;;16.10;9.00;;;11.70;58.30;;;;;;5020006;28;20211;-75
2022/03/13 08:32:24;;;;;;;15.83;8.63;;;11.70;57.60;;;;;;5017740;28;20231;-74
2022/03/13 08:34:52;;;;;;;13.97;9.43;;;11.40;57.40;;;;;;5028189;28;20185;-75
2022/03/13 08:37:17;;;;;;;16.63;9.23;;;11.40;57.70;;;;;;5027496;28;20216;-75
2022/03/13 08:39:43;;;;;;;12.87;8.10;;;11.80;57.30;;;;;;5027236;28;20327;-74
2022/03/13 08:42:08;;;;;;;14.37;8.20;;;11.90;56.60;;;;;;5029963;28;20608;-74
2022/03/13 08:44:34;;;;;;;15.00;8.43;;;11.60;57.30;;;;;;5028973;28;20199;-75
2022/03/13 08:47:00;;;;;;;16.47;8.43;;;11.20;57.80;;;;;;5030569;28;20181;-73
2022/03/13 08:49:26;;;;;;;17.03;8.87;;;10.80;58.50;;;;;;5028393;28;20287;-74
2022/03/13 08:51:52;;;;;;;14.37;8.57;;;11.00;58.30;;;;;;5028448;28;20223;-75
2022/03/13 08:54:17;;;;;;;15.43;8.37;;;10.70;58.40;;;;;;5030024;28;20208;-75
2022/03/13 08:56:43;;;;;;;13.80;8.20;;;11.10;57.80;;;;;;5020199;28;20217;-74
2022/03/13 08:59:09;;;;;;;16.77;8.37;;;10.60;59.00;;;;;;5039039;28;20707;-75
2022/03/13 09:01:35;;;;;;;14.17;7.47;;;10.40;59.40;;;;;;5027131;28;20220;-73
2022/03/13 09:04:01;;;;;;;13.57;7.93;;;10.10;60.00;;;;;;5027352;28;20208;-76
2022/03/13 09:06:26;;;;;;;14.50;7.40;;;10.20;61.60;;;;;;5026828;28;20200;-76
2022/03/13 09:08:52;;;;;;;16.63;8.30;;;10.00;62.00;;;;;;5024045;28;20213;-76
2022/03/13 09:11:17;;;;;;;15.27;7.93;;;10.20;61.30;;;;;;5021812;28;20267;-74
2022/03/13 09:13:43;;;;;;;14.03;8.53;;;10.60;63.70;;;;;;5017275;28;20287;-75
2022/03/13 09:16:09;;;;;;;20.93;9.23;;;10.70;60.70;;;;;;5032558;28;20823;-75
2022/03/13 09:18:34;;;;;;;13.80;7.73;;;10.60;60.70;;;;;;5029775;28;20316;-78
2022/03/13 09:21:00;;;;;;;15.03;8.23;;;10.60;60.40;;;;;;5027943;28;20578;-75
2022/03/13 09:23:27;;;;;;;15.95;9.27;;;10.80;60.50;;;;;;5031209;28;20433;-78
2022/03/13 09:25:53;;;;;;;18.07;8.83;;;10.20;59.70;;;;;;5016755;28;20317;-78
2022/03/13 09:28:20;;;;;;;16.83;8.33;;;10.80;62.90;;;;;;5028450;28;20232;-78
2022/03/13 09:30:45;;;;;;;16.23;7.70;;;10.40;59.60;;;;;;5030972;28;20205;-77
2022/03/13 09:33:12;;;;;;;14.07;7.73;;;10.50;59.40;;;;;;5032481;28;20270;-78
2022/03/13 09:35:41;;;;;;;10.77;7.30;;;10.70;59.00;;;;;;5031481;28;20228;-77
2022/03/13 09:38:07;;;;;;;15.50;7.40;;;10.90;60.10;;;;;;5025868;28;20234;-78
2022/03/13 09:40:35;;;;;;;13.67;7.53;;;11.00;58.50;;;;;;5030999;28;20208;-78
2022/03/13 09:43:05;;;;;;;16.33;7.37;;;10.50;58.60;;;;;;5033066;28;20219;-77
2022/03/13 09:45:31;;;;;;;13.13;7.50;;;10.80;58.10;;;;;;5036884;28;20258;-76
2022/03/13 09:47:57;;;;;;;12.77;7.50;;;11.40;60.00;;;;;;5038972;28;20204;-74
2022/03/13 09:50:23;;;;;;;13.40;6.90;;;11.20;57.90;;;;;;5038858;28;20251;-76
2022/03/13 09:52:48;;;;;;;13.45;7.72;;;11.00;57.70;;;;;;5038777;28;20415;-79
2022/03/13 09:55:15;;;;;;;11.17;6.87;;;10.70;59.20;;;;;;5041475;28;20291;-75
2022/03/13 09:57:43;;;;;;;14.82;8.38;;;10.60;56.70;;;;;;5037346;28;20429;-79
2022/03/13 10:00:16;;;;;;;12.27;6.90;;;11.10;57.90;;;;;;5033836;28;20230;-75
2022/03/13 10:02:42;;;;;;;11.20;6.60;;;10.80;55.30;;;;;;5029574;28;20209;-74
2022/03/13 10:05:14;;;;;;;11.47;6.77;;;10.90;55.40;;;;;;5029529;28;20177;-75
2022/03/13 10:07:54;;;;;;;11.03;5.80;;;10.90;55.70;;;;;;5026597;28;20783;-77
2022/03/13 10:10:21;;;;;;;13.77;6.97;;;10.80;55.20;;;;;;5017065;28;20217;-75
2022/03/13 10:12:47;;;;;;;11.63;6.63;;;10.90;55.30;;;;;;5022923;28;20224;-76
2022/03/13 10:15:13;;;;;;;13.50;7.00;;;11.00;55.50;;;;;;5023774;28;20215;-75
2022/03/13 10:17:40;;;;;;;11.00;6.90;;;11.20;55.40;;;;;;5025623;28;20203;-73
2022/03/13 10:20:25;;;;;;;11.13;6.77;;;11.20;55.40;;;;;;5028266;28;20207;-74
2022/03/13 10:22:59;;;;;;;12.50;6.73;;;11.10;55.00;;;;;;5049947;28;20223;-76
2022/03/13 10:25:29;;;;;;;9.37;6.73;;;11.10;55.10;;;;;;5047490;28;20215;-76
2022/03/13 10:27:59;;;;;;;11.17;7.10;;;11.10;55.00;;;;;;5049573;28;20593;-77
2022/03/13 10:30:25;;;;;;;9.90;6.67;;;11.60;55.40;;;;;;5049138;28;20234;-75
2022/03/13 10:32:58;;;;;;;10.67;6.33;;;11.40;54.80;;;;;;5042595;28;20277;-77
2022/03/13 10:35:23;;;;;;;10.27;6.07;;;11.10;54.80;;;;;;5045464;28;20180;-75
2022/03/13 10:37:48;;;;;;;9.20;6.07;;;11.00;55.10;;;;;;5043900;28;20634;-78
2022/03/13 10:40:21;;;;;;;10.73;5.70;;;11.00;54.80;;;;;;5048063;28;20204;-78
2022/03/13 10:42:48;;;;;;;10.13;6.37;;;10.90;54.60;;;;;;5041691;28;20205;-78
2022/03/13 10:45:35;;;;;;;9.60;5.77;;;10.80;54.80;;;;;;5042145;28;20290;-77
2022/03/13 10:48:18;;;;;;;11.63;6.40;;;10.90;54.50;;;;;;5037958;28;20288;-77
2022/03/13 10:50:45;;;;;;;12.03;5.67;;;11.10;54.50;;;;;;5053659;28;20286;-79
2022/03/13 10:53:15;;;;;;;13.17;6.33;;;11.20;54.40;;;;;;5060048;28;20605;-79
2022/03/13 10:55:44;;;;;;;10.93;6.17;;;11.20;54.10;;;;;;5056088;28;20204;-78
2022/03/13 10:58:10;;;;;;;10.73;5.80;;;11.30;54.00;;;;;;5049190;28;20286;-79
2022/03/13 11:00:36;;;;;;;10.03;6.10;;;11.30;54.10;;;;;;5050689;28;20210;-80
2022/03/13 11:03:17;;;;;;;9.97;6.10;;;11.80;53.90;;;;;;5049888;28;20644;-79
2022/03/13 11:05:42;;;;;;;8.57;5.37;;;11.90;53.40;;;;;;5047888;28;20172;-78
2022/03/13 11:08:08;;;;;;;9.73;5.87;;;11.90;53.50;;;;;;5049980;28;20176;-79
2022/03/13 11:10:37;;;;;;;9.83;5.87;;;12.20;53.70;;;;;;5041314;28;20220;-79
2022/03/13 11:13:04;;;;;;;13.10;5.70;;;12.00;53.30;;;;;;5043745;28;20247;-81
2022/03/13 11:15:31;;;;;;;9.50;5.63;;;12.00;53.30;;;;;;5049647;28;20222;-79
2022/03/13 11:17:58;;;;;;;9.07;5.13;;;11.60;53.40;;;;;;5048374;28;20215;-81
2022/03/13 11:20:24;;;;;;;10.03;4.80;;;11.70;53.70;;;;;;5051681;28;20179;-78
2022/03/13 11:22:50;;;;;;;9.27;5.23;;;11.80;53.20;;;;;;5054474;28;20192;-78
2022/03/13 11:25:16;;;;;;;7.90;4.30;;;12.00;53.00;;;;;;5051744;28;20214;-78
2022/03/13 11:27:44;;;;;;;7.93;4.83;;;11.90;52.70;;;;;;5051450;28;20299;-78
2022/03/13 11:30:29;;;;;;;8.87;4.90;;;11.80;53.00;;;;;;5055577;28;20199;-80
2022/03/13 11:32:55;;;;;;;9.07;5.53;;;12.10;53.30;;;;;;5053267;28;20303;-79
2022/03/13 11:35:23;;;;;;;25.13;15.17;;;12.40;52.90;;;;;;5052028;28;20195;-79
2022/03/13 11:38:15;;;;;;;10.87;5.80;;;12.40;53.70;;;;;;5043290;28;20238;-78
2022/03/13 11:40:40;;;;;;;8.50;5.53;;;12.40;53.70;;;;;;5044983;28;20384;-80
2022/03/13 11:43:17;;;;;;;13.17;6.00;;;12.10;53.70;;;;;;5052080;28;20750;-78
2022/03/13 11:45:50;;;;;;;11.63;6.13;;;12.10;53.60;;;;;;5057132;28;20207;-81
2022/03/13 11:48:17;;;;;;;8.93;5.17;;;11.90;53.70;;;;;;5046498;28;20614;-78
2022/03/13 11:50:58;;;;;;;9.47;5.47;;;12.00;53.50;;;;;;5047578;28;20610;-80
2022/03/13 11:53:29;;;;;;;8.87;5.17;;;12.10;53.00;;;;;;5051419;28;20186;-79
2022/03/13 11:55:57;;;;;;;8.33;4.63;;;12.10;52.80;;;;;;5041121;28;20180;-79
2022/03/13 11:58:46;;;;;;;9.50;5.53;;;12.20;52.80;;;;;;5035900;28;20215;-78
2022/03/13 12:01:31;;;;;;;10.13;5.63;;;12.10;52.10;;;;;;5029890;28;20284;-78
2022/03/13 12:04:03;;;;;;;9.13;5.37;;;12.10;52.10;;;;;;5034640;28;20219;-80
2022/03/13 12:06:46;;;;;;;10.17;5.27;;;12.00;52.00;;;;;;5040478;28;20200;-79
2022/03/13 12:09:15;;;;;;;10.57;4.97;;;12.20;52.50;;;;;;5041033;28;20205;-80
2022/03/13 12:11:46;;;;;;;9.43;5.27;;;12.10;51.80;;;;;;5040830;28;20220;-79
2022/03/13 12:14:14;;;;;;;12.23;6.57;;;12.10;52.80;;;;;;5036105;28;20168;-79
2022/03/13 12:16:41;;;;;;;10.97;6.23;;;12.10;53.50;;;;;;5034102;28;20204;-81
2022/03/13 12:19:09;;;;;;;10.20;6.07;;;12.10;53.70;;;;;;5045065;28;20584;-80
2022/03/13 12:21:35;;;;;;;10.67;6.23;;;12.30;53.70;;;;;;5046690;28;20216;-80
2022/03/13 12:24:15;;;;;;;9.10;5.63;;;12.40;53.90;;;;;;5040240;28;20288;-79
2022/03/13 12:26:42;;;;;;;12.27;6.93;;;12.50;53.80;;;;;;5035313;28;20180;-79
2022/03/13 12:29:08;;;;;;;10.70;6.30;;;12.20;54.00;;;;;;5041140;28;20244;-79
2022/03/13 12:31:42;;;;;;;9.77;5.97;;;12.50;54.50;;;;;;5045326;28;20204;-81
2022/03/13 12:34:09;;;;;;;11.17;6.47;;;12.50;54.30;;;;;;5042924;28;20218;-79
2022/03/13 12:36:40;;;;;;;11.23;6.90;;;12.30;54.60;;;;;;5040515;28;20200;-82
2022/03/13 12:39:14;;;;;;;14.33;7.40;;;12.30;55.00;;;;;;5048648;28;20219;-82
2022/03/13 12:41:44;;;;;;;11.37;7.00;;;12.30;55.30;;;;;;5040195;28;20212;-80